Time;durP1;ratioP1;P1;durP2;ratioP2;P2;SDS_P1;SDS_P2;PMS_P1;PMS_P2;Temp;Humidity;BMP_temperature;BMP_pressure;BME280_temperature;BME280_humidity;BME280_pressure;Samples;Min_cycle;Max_cycle;Signal;HPM_P1;HPM_P2
2021/11/16 00:02:01;;;;;;;15.10;7.67;;;6.50;99.90;;;;;;4996308;28;20195;-89
2021/11/16 00:04:27;;;;;;;11.60;8.13;;;6.40;99.90;;;;;;4971551;28;20227;-88
2021/11/16 00:06:53;;;;;;;10.17;7.97;;;6.50;99.90;;;;;;4980314;28;20236;-88
2021/11/16 00:09:20;;;;;;;18.00;8.43;;;6.50;99.90;;;;;;4996830;28;20322;-89
2021/11/16 00:11:47;;;;;;;17.47;7.90;;;6.50;99.90;;;;;;4999264;28;20214;-88
2021/11/16 00:14:15;;;;;;;11.80;8.50;;;6.40;99.90;;;;;;5005729;28;20673;-88
2021/11/16 00:16:41;;;;;;;12.97;8.03;;;6.50;99.90;;;;;;4995493;28;20219;-88
2021/11/16 00:19:11;;;;;;;13.20;7.73;;;6.40;99.90;;;;;;4996520;28;20215;-88
2021/11/16 00:21:37;;;;;;;20.73;10.17;;;6.50;99.90;;;;;;4980426;28;20630;-88
2021/11/16 00:24:09;;;;;;;16.43;10.37;;;6.50;99.90;;;;;;4996521;28;20311;-88
2021/11/16 00:26:35;;;;;;;14.67;8.33;;;6.50;99.90;;;;;;4997092;28;20282;-88
2021/11/16 00:29:01;;;;;;;20.53;8.97;;;6.60;99.90;;;;;;4978476;28;20695;-87
2021/11/16 00:31:31;;;;;;;18.57;7.03;;;6.50;99.90;;;;;;4994115;28;20301;-89
2021/11/16 00:33:57;;;;;;;14.00;8.40;;;6.50;99.90;;;;;;4993247;28;20224;-88
2021/11/16 00:36:23;;;;;;;17.73;8.87;;;6.50;99.90;;;;;;4978127;28;21012;-88
2021/11/16 00:38:49;;;;;;;15.73;7.50;;;6.50;99.90;;;;;;4995625;28;20196;-88
2021/11/16 00:41:15;;;;;;;11.33;6.30;;;6.50;99.90;;;;;;4996594;28;20680;-88
2021/11/16 00:43:40;;;;;;;14.67;8.30;;;6.40;99.90;;;;;;4996514;28;20215;-88
2021/11/16 00:46:06;;;;;;;16.93;7.70;;;6.40;99.90;;;;;;4964124;28;20894;-89
2021/11/16 00:48:32;;;;;;;17.57;8.93;;;6.40;99.90;;;;;;4980264;28;20235;-87
2021/11/16 00:51:01;;;;;;;17.10;8.33;;;6.40;99.90;;;;;;4979824;28;20700;-89
2021/11/16 00:53:29;;;;;;;16.93;8.27;;;6.40;99.90;;;;;;4996061;28;20196;-88
2021/11/16 00:55:57;;;;;;;16.20;7.50;;;6.50;99.90;;;;;;4995893;28;20211;-87
2021/11/16 00:58:23;;;;;;;10.20;7.73;;;6.50;99.90;;;;;;4994515;28;20246;-88
2021/11/16 01:00:49;;;;;;;15.73;8.87;;;6.50;99.90;;;;;;4963316;28;20227;-87
2021/11/16 01:03:16;;;;;;;18.57;9.00;;;6.50;99.90;;;;;;5011101;28;20235;-87
2021/11/16 01:05:42;;;;;;;11.50;7.27;;;6.50;99.90;;;;;;4978770;28;20262;-87
2021/11/16 01:08:09;;;;;;;12.40;7.97;;;6.50;99.90;;;;;;4997344;28;20216;-87
2021/11/16 01:10:36;;;;;;;14.57;9.50;;;6.50;99.90;;;;;;4992089;28;20250;-88
2021/11/16 01:13:03;;;;;;;20.27;8.13;;;6.50;99.90;;;;;;4976672;28;20259;-88
2021/11/16 01:15:30;;;;;;;13.83;8.30;;;6.50;99.90;;;;;;4973535;28;20238;-87
2021/11/16 01:17:56;;;;;;;13.63;9.43;;;6.50;99.90;;;;;;4993104;28;20273;-88
2021/11/16 01:20:23;;;;;;;19.93;9.47;;;6.60;99.90;;;;;;4997471;28;20591;-88
2021/11/16 01:22:52;;;;;;;15.17;10.00;;;6.60;99.90;;;;;;4993733;28;20227;-87
2021/11/16 01:25:20;;;;;;;11.83;6.93;;;6.60;99.90;;;;;;4995335;28;20235;-88
2021/11/16 01:27:46;;;;;;;13.00;7.47;;;6.60;99.90;;;;;;4977629;28;22158;-88
2021/11/16 01:30:17;;;;;;;13.80;8.60;;;6.60;99.90;;;;;;4995155;28;20332;-88
2021/11/16 01:32:51;;;;;;;15.60;10.83;;;6.60;99.90;;;;;;4995810;28;20195;-89
2021/11/16 01:35:17;;;;;;;19.93;8.23;;;6.60;99.90;;;;;;4995170;28;21024;-87
2021/11/16 01:37:43;;;;;;;20.33;7.93;;;6.60;99.90;;;;;;4993496;28;20228;-88
2021/11/16 01:40:16;;;;;;;20.07;9.53;;;6.60;99.90;;;;;;5000647;28;20224;-88
2021/11/16 01:42:45;;;;;;;10.33;6.97;;;6.60;99.90;;;;;;4992734;28;20234;-88
2021/11/16 01:45:11;;;;;;;12.90;8.00;;;6.60;99.90;;;;;;4995121;28;20227;-88
2021/11/16 01:47:37;;;;;;;15.53;8.97;;;6.50;99.90;;;;;;4991455;28;20196;-88
2021/11/16 01:50:05;;;;;;;19.17;7.77;;;6.50;99.90;;;;;;5002883;28;20201;-87
2021/11/16 01:52:30;;;;;;;19.50;8.07;;;6.40;99.90;;;;;;4993450;28;20235;-87
2021/11/16 01:54:56;;;;;;;13.87;8.03;;;6.40;99.90;;;;;;4994240;28;20616;-87
2021/11/16 01:57:22;;;;;;;10.63;5.80;;;6.40;99.90;;;;;;4995234;28;20585;-88
2021/11/16 01:59:48;;;;;;;22.03;8.17;;;6.40;99.90;;;;;;4994365;28;20183;-87
2021/11/16 02:02:13;;;;;;;12.90;7.73;;;6.30;99.90;;;;;;4978304;28;20197;-87
2021/11/16 02:04:40;;;;;;;11.37;6.77;;;6.30;99.90;;;;;;4996437;28;20311;-88
2021/11/16 02:07:07;;;;;;;15.83;9.30;;;6.30;99.90;;;;;;4975309;28;20239;-86
2021/11/16 02:09:35;;;;;;;18.20;8.33;;;6.30;99.90;;;;;;5008539;28;20243;-84
2021/11/16 02:12:02;;;;;;;10.53;5.87;;;6.30;99.90;;;;;;4994493;28;20244;-89
2021/11/16 02:14:27;;;;;;;7.87;6.57;;;6.40;99.90;;;;;;4995481;28;20195;-89
2021/11/16 02:16:54;;;;;;;19.97;7.90;;;6.30;99.90;;;;;;4992729;28;21109;-89
2021/11/16 02:19:21;;;;;;;16.97;8.63;;;6.30;99.90;;;;;;4995646;28;20257;-87
2021/11/16 02:21:48;;;;;;;10.17;6.47;;;6.30;99.90;;;;;;4979519;28;20219;-88
2021/11/16 02:24:14;;;;;;;15.63;8.73;;;6.40;99.90;;;;;;4993733;28;20218;-89
2021/11/16 02:26:40;;;;;;;21.30;8.77;;;6.40;99.90;;;;;;4997607;28;20196;-88
2021/11/16 02:29:07;;;;;;;14.30;6.20;;;6.40;99.90;;;;;;4998427;28;20225;-89
2021/11/16 02:31:34;;;;;;;17.30;7.50;;;6.40;99.90;;;;;;4999456;28;21013;-86
2021/11/16 02:34:00;;;;;;;16.87;7.50;;;6.40;99.90;;;;;;4982568;28;20525;-87
2021/11/16 02:36:29;;;;;;;14.30;8.63;;;6.50;99.90;;;;;;4999600;28;20224;-87
2021/11/16 02:38:55;;;;;;;16.67;9.20;;;6.50;99.90;;;;;;4999279;28;20276;-87
2021/11/16 02:41:22;;;;;;;13.93;7.27;;;6.50;99.90;;;;;;5000231;28;20191;-87
2021/11/16 02:43:49;;;;;;;15.37;8.97;;;6.40;99.90;;;;;;4981843;28;20219;-88
2021/11/16 02:46:14;;;;;;;11.57;7.77;;;6.40;99.90;;;;;;4998672;28;20223;-87
2021/11/16 02:48:40;;;;;;;15.07;9.03;;;6.40;99.90;;;;;;4998591;28;20235;-87
2021/11/16 02:51:11;;;;;;;12.77;7.30;;;6.40;99.90;;;;;;4982246;28;20219;-87
2021/11/16 02:53:39;;;;;;;9.90;6.67;;;6.40;99.90;;;;;;5000049;28;20176;-88
2021/11/16 02:56:06;;;;;;;12.80;7.07;;;6.40;99.90;;;;;;4999585;28;20200;-87
2021/11/16 02:58:33;;;;;;;24.70;8.10;;;6.40;99.90;;;;;;4995689;28;20300;-87
2021/11/16 03:01:08;;;;;;;17.93;7.80;;;6.30;99.90;;;;;;5001479;28;20282;-88
2021/11/16 03:03:37;;;;;;;12.27;8.53;;;6.30;99.90;;;;;;4991198;28;20227;-88
2021/11/16 03:06:04;;;;;;;13.40;9.23;;;6.30;99.90;;;;;;4996566;28;20239;-87
2021/11/16 03:08:30;;;;;;;16.23;9.00;;;6.30;99.90;;;;;;4997885;28;20329;-87
2021/11/16 03:11:00;;;;;;;10.50;8.90;;;6.30;99.90;;;;;;4998870;28;20318;-88
2021/11/16 03:13:29;;;;;;;18.07;8.50;;;6.30;99.90;;;;;;4998024;28;20223;-87
2021/11/16 03:15:55;;;;;;;11.03;7.53;;;6.30;99.90;;;;;;4997232;28;20224;-87
2021/11/16 03:18:21;;;;;;;9.20;7.00;;;6.30;99.90;;;;;;4995897;28;20255;-87
2021/11/16 03:20:47;;;;;;;9.13;6.53;;;6.20;99.90;;;;;;4997812;28;20520;-87
2021/11/16 03:23:17;;;;;;;13.90;7.47;;;6.20;99.90;;;;;;4997643;28;20191;-87
2021/11/16 03:25:54;;;;;;;14.03;8.90;;;6.30;99.90;;;;;;4993776;28;20338;-89
2021/11/16 03:28:22;;;;;;;18.03;9.40;;;6.40;99.90;;;;;;5005486;28;20231;-87
2021/11/16 03:30:51;;;;;;;16.63;8.63;;;6.40;99.90;;;;;;4999158;28;20227;-87
2021/11/16 03:33:18;;;;;;;23.03;8.73;;;6.40;99.90;;;;;;4997725;28;20299;-87
2021/11/16 03:35:45;;;;;;;20.20;8.03;;;6.50;99.90;;;;;;4966000;28;20199;-86
2021/11/16 03:38:12;;;;;;;18.43;11.27;;;6.50;99.90;;;;;;4981825;28;20217;-87
2021/11/16 03:40:39;;;;;;;11.17;6.27;;;6.50;99.90;;;;;;4997485;28;20215;-87
2021/11/16 03:43:09;;;;;;;14.67;7.73;;;6.50;99.90;;;;;;4997421;28;20223;-86
2021/11/16 03:45:36;;;;;;;11.97;7.43;;;6.50;99.90;;;;;;4996723;28;20767;-87
2021/11/16 03:48:02;;;;;;;15.73;7.60;;;6.50;99.90;;;;;;4997380;28;20321;-86
2021/11/16 03:50:29;;;;;;;18.53;7.07;;;6.60;99.90;;;;;;4995467;28;20198;-86
2021/11/16 03:52:57;;;;;;;28.63;7.97;;;6.60;99.90;;;;;;4994321;28;20219;-86
2021/11/16 03:55:30;;;;;;;14.23;7.07;;;6.50;99.90;;;;;;4994574;28;20231;-84
2021/11/16 03:57:58;;;;;;;18.47;9.93;;;6.40;99.90;;;;;;4998314;28;20725;-86
2021/11/16 04:00:31;;;;;;;17.13;7.40;;;6.40;99.90;;;;;;4995903;28;20226;-86
2021/11/16 04:02:58;;;;;;;18.40;8.57;;;6.30;99.90;;;;;;4993963;28;20231;-87
2021/11/16 04:05:25;;;;;;;12.70;7.63;;;6.30;99.90;;;;;;4978928;28;20195;-85
2021/11/16 04:07:52;;;;;;;15.47;7.87;;;6.20;99.90;;;;;;4993656;28;20700;-85
2021/11/16 04:10:18;;;;;;;18.43;9.50;;;6.20;99.90;;;;;;4990285;28;20211;-86
2021/11/16 04:12:45;;;;;;;15.40;8.47;;;6.20;99.90;;;;;;4992432;28;20223;-85
2021/11/16 04:15:14;;;;;;;16.20;8.60;;;6.30;99.90;;;;;;4976313;28;20315;-87
2021/11/16 04:17:43;;;;;;;16.43;8.20;;;6.40;99.90;;;;;;4993691;28;20188;-84
2021/11/16 04:20:12;;;;;;;20.73;9.90;;;6.40;99.90;;;;;;4991251;28;20180;-86
2021/11/16 04:22:38;;;;;;;15.93;9.30;;;6.50;99.90;;;;;;4992433;28;20230;-85
2021/11/16 04:25:05;;;;;;;14.13;8.37;;;6.50;99.90;;;;;;4977537;28;20223;-87
2021/11/16 04:27:31;;;;;;;12.67;8.17;;;6.60;99.90;;;;;;4993361;28;20296;-86
2021/11/16 04:29:56;;;;;;;16.30;7.30;;;6.60;99.90;;;;;;4993800;28;20231;-85
2021/11/16 04:32:22;;;;;;;21.63;10.10;;;6.50;99.90;;;;;;4977411;28;20199;-86
2021/11/16 04:34:48;;;;;;;18.00;9.40;;;6.50;99.90;;;;;;4988974;28;21153;-86
2021/11/16 04:37:14;;;;;;;15.93;8.57;;;6.40;99.90;;;;;;4974255;28;20211;-87
2021/11/16 04:39:40;;;;;;;12.87;8.40;;;6.50;99.90;;;;;;4992021;28;20223;-87
2021/11/16 04:42:06;;;;;;;10.27;7.00;;;6.60;99.90;;;;;;4992044;28;20221;-86
2021/11/16 04:44:31;;;;;;;14.00;8.97;;;6.70;99.90;;;;;;4976903;28;20625;-86
2021/11/16 04:46:58;;;;;;;23.37;9.70;;;6.70;99.90;;;;;;4976828;28;20235;-85
2021/11/16 04:49:28;;;;;;;21.23;8.03;;;6.70;99.90;;;;;;4995230;28;20239;-85
2021/11/16 05:02:42;;;;;;;18.33;8.20;;;6.50;99.90;;;;;;4994241;28;20774;-86
2021/11/16 05:05:12;;;;;;;12.13;7.50;;;6.50;99.90;;;;;;4991863;28;20187;-86
2021/11/16 05:07:53;;;;;;;20.73;7.97;;;6.50;99.90;;;;;;4991262;28;20239;-87
2021/11/16 05:10:19;;;;;;;17.10;7.43;;;6.60;99.90;;;;;;4984982;28;20219;-87
2021/11/16 05:12:45;;;;;;;19.43;8.23;;;6.60;99.90;;;;;;4994233;28;20302;-87
2021/11/16 05:15:16;;;;;;;13.43;8.03;;;6.60;99.90;;;;;;4990317;28;20927;-86
2021/11/16 05:17:43;;;;;;;16.30;7.17;;;6.60;99.90;;;;;;4999695;28;20502;-86
2021/11/16 05:20:10;;;;;;;16.70;7.60;;;6.70;99.90;;;;;;4991024;28;20245;-86
2021/11/16 05:22:36;;;;;;;19.57;9.40;;;6.70;99.90;;;;;;4991366;28;20226;-87
2021/11/16 05:25:03;;;;;;;15.33;9.13;;;6.70;99.90;;;;;;4991784;28;20226;-86
2021/11/16 05:27:30;;;;;;;20.43;7.97;;;6.80;99.90;;;;;;4993721;28;20242;-85
2021/11/16 05:29:56;;;;;;;10.10;6.23;;;6.70;99.90;;;;;;4993003;28;20235;-87
2021/11/16 05:32:21;;;;;;;19.03;9.07;;;6.70;99.90;;;;;;4991340;28;20609;-85
2021/11/16 05:34:47;;;;;;;19.73;9.00;;;6.70;99.90;;;;;;4992632;28;20582;-84
2021/11/16 05:37:13;;;;;;;17.43;10.10;;;6.60;99.90;;;;;;4991641;28;20285;-86
2021/11/16 05:39:39;;;;;;;22.73;9.20;;;6.50;99.90;;;;;;4991070;28;20232;-85
2021/11/16 05:42:05;;;;;;;21.27;8.83;;;6.60;99.90;;;;;;4991790;28;20212;-87
2021/11/16 05:44:32;;;;;;;18.33;10.17;;;6.60;99.90;;;;;;4994236;28;20291;-86
2021/11/16 05:47:00;;;;;;;15.20;8.03;;;6.60;99.90;;;;;;4999059;28;20212;-86
2021/11/16 05:49:31;;;;;;;13.60;8.10;;;6.60;99.90;;;;;;4989510;28;20231;-86
2021/11/16 05:51:58;;;;;;;20.13;11.43;;;6.70;99.90;;;;;;4977327;28;20563;-87
2021/11/16 05:54:28;;;;;;;12.03;7.17;;;6.70;99.90;;;;;;4977455;28;20221;-85
2021/11/16 05:56:54;;;;;;;11.63;8.13;;;6.70;99.90;;;;;;4992926;28;21018;-87
2021/11/16 05:59:20;;;;;;;13.63;9.47;;;6.70;99.90;;;;;;4994494;28;20192;-86
2021/11/16 06:01:46;;;;;;;16.00;8.73;;;6.70;99.90;;;;;;4997080;28;20589;-87
2021/11/16 06:04:11;;;;;;;12.17;7.47;;;6.80;99.90;;;;;;4979107;28;20220;-87
2021/11/16 06:06:39;;;;;;;14.10;9.27;;;6.80;99.90;;;;;;4994388;28;20236;-85
2021/11/16 06:09:06;;;;;;;21.17;7.73;;;6.80;99.90;;;;;;4995266;28;21142;-87
2021/11/16 06:11:33;;;;;;;16.43;8.10;;;6.80;99.90;;;;;;4977481;28;20191;-88
2021/11/16 06:13:59;;;;;;;12.63;8.17;;;6.70;99.90;;;;;;4994247;28;20560;-86
2021/11/16 06:16:25;;;;;;;15.77;7.63;;;6.80;99.90;;;;;;4994047;28;20223;-85
2021/11/16 06:18:54;;;;;;;14.93;8.30;;;6.80;99.90;;;;;;4994255;28;20282;-88
2021/11/16 06:21:21;;;;;;;21.30;7.97;;;6.70;99.90;;;;;;5001686;28;20230;-86
2021/11/16 06:23:47;;;;;;;17.13;7.27;;;6.60;99.90;;;;;;4993377;28;20245;-87
2021/11/16 06:26:13;;;;;;;14.93;8.33;;;6.60;99.90;;;;;;5008726;28;20199;-87
2021/11/16 06:28:39;;;;;;;17.07;8.17;;;6.60;99.90;;;;;;4990352;28;20232;-87
2021/11/16 06:31:05;;;;;;;15.13;6.90;;;6.40;99.90;;;;;;4983298;28;20225;-86
2021/11/16 06:33:31;;;;;;;12.73;7.67;;;6.40;99.90;;;;;;4993423;28;20224;-87
2021/11/16 06:36:00;;;;;;;10.70;6.47;;;6.40;99.90;;;;;;4991347;28;20231;-88
2021/11/16 06:38:25;;;;;;;14.23;7.80;;;6.40;99.90;;;;;;4976666;28;20290;-86
2021/11/16 06:40:51;;;;;;;21.53;8.57;;;6.40;99.90;;;;;;4979665;28;20306;-89
2021/11/16 06:43:29;;;;;;;14.07;7.50;;;6.50;99.90;;;;;;4977092;28;20219;-88
2021/11/16 06:45:57;;;;;;;8.20;6.00;;;6.50;99.90;;;;;;4994385;28;20326;-90
2021/11/16 06:48:24;;;;;;;16.23;8.57;;;6.60;99.90;;;;;;4994244;28;20558;-87
2021/11/16 06:50:52;;;;;;;11.77;8.27;;;6.60;99.90;;;;;;4993089;28;20203;-88
2021/11/16 06:53:26;;;;;;;14.00;7.73;;;6.60;99.90;;;;;;4997311;28;20199;-88
2021/11/16 06:55:52;;;;;;;13.30;7.63;;;6.50;99.90;;;;;;4997211;28;20545;-89
2021/11/16 06:58:18;;;;;;;13.67;6.97;;;6.50;99.90;;;;;;4993053;28;20233;-87
2021/11/16 07:00:44;;;;;;;16.63;8.10;;;6.50;99.90;;;;;;4975767;28;20223;-87
2021/11/16 07:03:19;;;;;;;23.33;9.07;;;6.50;99.90;;;;;;4976091;28;20636;-86
2021/11/16 07:05:48;;;;;;;17.33;7.60;;;6.60;99.90;;;;;;4994202;28;20254;-88
2021/11/16 07:08:34;;;;;;;12.80;7.43;;;6.50;99.90;;;;;;4993049;28;20274;-88
2021/11/16 07:11:11;;;;;;;18.23;8.63;;;6.40;99.90;;;;;;4994222;28;20247;-88
2021/11/16 07:13:52;;;;;;;18.27;7.57;;;6.50;99.90;;;;;;5005163;28;20736;-88
2021/11/16 07:16:17;;;;;;;18.00;9.40;;;6.50;99.90;;;;;;4998246;28;20311;-87
2021/11/16 07:18:50;;;;;;;25.97;6.87;;;6.60;99.90;;;;;;4993493;28;20224;-88
2021/11/16 07:21:16;;;;;;;16.27;8.77;;;6.60;99.90;;;;;;4978563;28;20215;-88
2021/11/16 07:23:42;;;;;;;15.53;7.27;;;6.50;99.90;;;;;;4996139;28;20218;-88
2021/11/16 07:26:13;;;;;;;19.67;7.77;;;6.50;99.90;;;;;;4997851;28;20642;-88
2021/11/16 07:28:49;;;;;;;22.13;8.07;;;6.50;99.90;;;;;;4988546;28;20239;-87
2021/11/16 07:31:20;;;;;;;14.67;7.00;;;6.40;99.90;;;;;;4995411;28;20226;-89
2021/11/16 07:33:46;;;;;;;11.00;7.70;;;6.40;99.90;;;;;;4996720;28;20219;-88
2021/11/16 07:36:15;;;;;;;14.80;6.03;;;6.40;99.90;;;;;;4998675;28;20227;-90
2021/11/16 07:38:47;;;;;;;20.60;8.70;;;6.30;99.90;;;;;;4980721;28;20623;-87
2021/11/16 07:41:20;;;;;;;16.40;9.50;;;6.20;99.90;;;;;;4976775;28;20798;-90
2021/11/16 07:43:46;;;;;;;21.07;8.77;;;6.30;99.90;;;;;;4997314;28;20222;-87
2021/11/16 07:46:11;;;;;;;15.43;7.97;;;6.30;99.90;;;;;;4998034;28;20447;-87
2021/11/16 07:48:39;;;;;;;13.97;7.47;;;6.40;99.90;;;;;;4978044;28;20247;-89
2021/11/16 07:51:09;;;;;;;11.90;6.70;;;6.40;99.90;;;;;;4994863;28;20223;-87
2021/11/16 07:53:50;;;;;;;13.17;6.70;;;6.30;99.90;;;;;;4997561;28;20219;-88
2021/11/16 07:56:21;;;;;;;12.60;8.47;;;6.20;99.90;;;;;;4996965;28;20188;-88
2021/11/16 07:59:06;;;;;;;24.13;7.53;;;6.10;99.90;;;;;;4996157;28;20251;-85
2021/11/16 08:01:44;;;;;;;13.17;8.00;;;6.10;99.90;;;;;;4978592;28;20219;-86
2021/11/16 08:04:21;;;;;;;14.77;7.73;;;6.20;99.90;;;;;;5005115;28;20309;-84
2021/11/16 08:15:05;;;;;;;18.40;7.03;;;6.20;99.90;;;;;;4998205;28;20709;-87
2021/11/16 08:17:32;;;;;;;14.43;9.33;;;6.20;99.90;;;;;;4996635;28;20250;-89
2021/11/16 08:20:00;;;;;;;14.87;9.00;;;6.20;99.90;;;;;;4996440;28;20223;-88
2021/11/16 08:22:27;;;;;;;11.80;7.40;;;6.20;99.90;;;;;;4997590;28;20215;-86
2021/11/16 08:24:55;;;;;;;12.60;5.67;;;6.30;99.90;;;;;;4994085;28;20735;-86
2021/11/16 08:27:23;;;;;;;10.80;4.83;;;6.40;99.90;;;;;;4988980;28;20223;-86
2021/11/16 08:30:04;;;;;;;10.63;7.17;;;6.40;99.90;;;;;;4997900;28;20233;-88
2021/11/16 08:32:35;;;;;;;19.27;9.13;;;6.40;99.90;;;;;;4996207;28;20243;-88
2021/11/16 08:35:07;;;;;;;10.80;6.37;;;6.50;99.90;;;;;;4977668;28;20695;-87
2021/11/16 08:37:38;;;;;;;9.33;5.63;;;6.50;99.90;;;;;;4995307;28;20235;-85
2021/11/16 08:40:11;;;;;;;13.53;9.70;;;6.50;99.90;;;;;;4995442;28;20319;-87
2021/11/16 08:42:40;;;;;;;15.70;8.50;;;6.50;99.90;;;;;;4996669;28;20290;-88
2021/11/16 08:45:13;;;;;;;20.20;8.27;;;6.50;99.90;;;;;;4994898;28;20358;-88
2021/11/16 08:47:44;;;;;;;20.00;8.40;;;6.60;99.90;;;;;;4996069;28;20191;-88
2021/11/16 08:50:19;;;;;;;10.87;6.93;;;6.50;99.90;;;;;;4996885;28;20204;-88
2021/11/16 08:52:45;;;;;;;16.17;5.70;;;6.60;99.90;;;;;;4995278;28;20227;-87
2021/11/16 08:55:18;;;;;;;19.43;8.03;;;6.60;99.90;;;;;;4979198;28;20372;-87
2021/11/16 08:57:48;;;;;;;13.87;7.33;;;6.60;99.90;;;;;;4996510;28;20285;-87
2021/11/16 09:00:36;;;;;;;18.50;7.90;;;6.70;99.90;;;;;;4997755;28;20208;-87
2021/11/16 09:03:20;;;;;;;16.77;7.63;;;6.50;99.90;;;;;;4995348;28;20724;-88
2021/11/16 09:05:48;;;;;;;13.53;7.77;;;6.30;99.90;;;;;;5012220;28;20282;-87
2021/11/16 09:08:19;;;;;;;27.93;10.53;;;6.30;99.90;;;;;;4995588;28;20213;-84
2021/11/16 09:10:47;;;;;;;20.73;11.70;;;6.30;99.90;;;;;;4985548;28;20266;-84
2021/11/16 09:13:16;;;;;;;17.63;8.93;;;6.40;99.90;;;;;;4996413;28;20220;-84
2021/11/16 09:15:45;;;;;;;18.80;10.77;;;6.40;99.90;;;;;;4992777;28;20228;-82
2021/11/16 09:18:22;;;;;;;17.13;7.47;;;6.50;99.90;;;;;;4996205;28;20247;-83
2021/11/16 09:21:00;;;;;;;14.90;7.97;;;6.40;99.90;;;;;;4992331;28;20661;-85
2021/11/16 09:23:32;;;;;;;19.93;10.67;;;6.40;99.90;;;;;;4992193;28;20211;-83
2021/11/16 09:29:05;;;;;;;17.50;6.40;;;6.50;99.90;;;;;;4995333;28;20278;-83
2021/11/16 09:31:33;;;;;;;15.77;8.30;;;6.50;99.90;;;;;;4995747;28;20226;-84
2021/11/16 09:34:27;;;;;;;15.70;7.83;;;6.60;99.90;;;;;;4994806;28;20661;-84
2021/11/16 09:37:02;;;;;;;15.87;8.63;;;6.60;99.90;;;;;;4993269;28;20232;-84
2021/11/16 09:39:39;;;;;;;15.40;9.63;;;6.70;99.90;;;;;;4997036;28;20229;-84
2021/11/16 09:42:08;;;;;;;20.10;9.43;;;6.70;99.90;;;;;;4997278;28;20685;-83
2021/11/16 09:44:43;;;;;;;18.83;9.53;;;6.80;99.90;;;;;;5005876;28;20342;-82
2021/11/16 09:47:24;;;;;;;12.83;8.10;;;6.80;99.90;;;;;;4994542;28;20195;-83
2021/11/16 09:50:00;;;;;;;12.77;6.00;;;6.80;99.90;;;;;;4992222;28;20239;-83
2021/11/16 09:52:40;;;;;;;20.20;9.90;;;6.70;99.90;;;;;;4992515;28;20227;-83
2021/11/16 09:55:09;;;;;;;17.73;8.30;;;6.70;99.90;;;;;;4991568;28;20211;-83
2021/11/16 09:57:39;;;;;;;17.23;7.13;;;6.70;99.90;;;;;;4990129;28;20270;-83
2021/11/16 10:00:25;;;;;;;15.37;7.40;;;6.70;99.90;;;;;;4993440;28;20215;-83
2021/11/16 10:02:55;;;;;;;15.10;7.07;;;6.80;99.90;;;;;;4990399;28;20769;-82
2021/11/16 10:05:23;;;;;;;8.73;5.47;;;6.70;99.90;;;;;;4990256;28;20296;-82
2021/11/16 10:07:51;;;;;;;17.00;8.63;;;6.70;99.90;;;;;;4957913;28;20317;-83
2021/11/16 10:10:19;;;;;;;17.07;7.47;;;6.70;99.90;;;;;;4994241;28;20597;-83
2021/11/16 10:12:57;;;;;;;11.13;6.07;;;6.70;99.90;;;;;;4991631;28;20278;-84
2021/11/16 10:15:27;;;;;;;10.13;7.17;;;6.50;99.90;;;;;;4994222;28;20227;-84
2021/11/16 10:17:54;;;;;;;12.60;6.30;;;6.40;99.90;;;;;;4993139;28;20532;-85
2021/11/16 10:20:26;;;;;;;11.87;6.37;;;6.40;99.90;;;;;;4993474;28;20209;-89
2021/11/16 10:22:55;;;;;;;21.43;10.40;;;6.50;99.90;;;;;;5002524;28;20229;-90
2021/11/16 10:25:23;;;;;;;11.20;5.57;;;6.50;99.90;;;;;;5009204;28;20257;-87
2021/11/16 10:27:53;;;;;;;12.83;6.30;;;6.50;99.90;;;;;;4993580;28;20227;-87
2021/11/16 10:30:26;;;;;;;14.30;6.47;;;6.50;99.90;;;;;;4993156;28;21303;-89
2021/11/16 10:33:13;;;;;;;9.43;8.00;;;6.50;99.90;;;;;;4994941;28;20266;-85
2021/11/16 10:35:57;;;;;;;19.70;7.07;;;6.50;99.90;;;;;;4994203;28;20199;-88
2021/11/16 10:38:28;;;;;;;9.73;5.27;;;6.50;99.90;;;;;;5002810;28;20631;-86
2021/11/16 10:40:56;;;;;;;17.87;5.70;;;6.40;99.90;;;;;;4994165;28;20235;-87
2021/11/16 10:43:23;;;;;;;10.40;7.23;;;6.40;99.90;;;;;;4991190;28;20244;-87
2021/11/16 10:45:51;;;;;;;23.27;9.80;;;6.50;99.90;;;;;;4985936;28;20243;-87
2021/11/16 10:48:20;;;;;;;10.47;6.70;;;6.50;99.90;;;;;;4997602;28;20747;-88
2021/11/16 10:50:48;;;;;;;15.97;4.93;;;6.60;99.90;;;;;;4982182;28;20602;-86
2021/11/16 10:53:22;;;;;;;10.77;6.97;;;6.50;99.90;;;;;;4997714;28;20704;-86
2021/11/16 10:56:00;;;;;;;9.60;6.87;;;6.60;99.90;;;;;;5011097;28;20215;-89
2021/11/16 10:58:32;;;;;;;12.17;5.47;;;6.60;99.90;;;;;;4992598;28;20282;-85
2021/11/16 11:01:09;;;;;;;20.73;6.80;;;6.50;99.90;;;;;;4994670;28;20223;-89
2021/11/16 11:03:48;;;;;;;7.50;5.70;;;6.50;99.90;;;;;;4997064;28;20219;-87
2021/11/16 11:06:25;;;;;;;12.97;4.83;;;6.50;99.90;;;;;;4995782;28;20647;-85
2021/11/16 11:08:59;;;;;;;9.13;5.33;;;6.50;99.90;;;;;;5003885;28;20222;-84
2021/11/16 11:11:45;;;;;;;17.63;6.40;;;6.60;99.90;;;;;;4995873;28;20250;-87
2021/11/16 11:14:16;;;;;;;13.53;5.30;;;6.60;99.90;;;;;;4998320;28;20220;-87
2021/11/16 11:16:49;;;;;;;13.93;6.33;;;6.50;99.90;;;;;;4997277;28;20308;-85
2021/11/16 11:19:26;;;;;;;7.17;4.37;;;6.30;99.90;;;;;;5009277;28;20249;-88
2021/11/16 11:24:51;;;;;;;9.97;4.93;;;6.20;99.90;;;;;;4999344;28;20292;-87
2021/11/16 11:27:43;;;;;;;9.80;5.03;;;6.20;99.90;;;;;;4996346;28;20219;-86
2021/11/16 11:30:17;;;;;;;11.67;6.70;;;6.20;99.90;;;;;;4999074;28;20228;-85
2021/11/16 11:32:45;;;;;;;7.77;5.33;;;6.10;99.90;;;;;;4997234;28;20318;-84
2021/11/16 11:35:17;;;;;;;6.67;5.97;;;6.10;99.90;;;;;;5004613;28;20198;-84
2021/11/16 11:37:49;;;;;;;9.43;5.27;;;6.20;99.90;;;;;;4997185;28;20310;-84
2021/11/16 11:40:19;;;;;;;15.27;5.50;;;6.20;99.90;;;;;;4998524;28;20230;-85
2021/11/16 11:42:44;;;;;;;11.93;5.20;;;6.20;99.90;;;;;;4997032;28;20222;-84
2021/11/16 11:45:27;;;;;;;10.13;7.23;;;6.30;99.90;;;;;;4998592;28;20220;-83
2021/11/16 11:48:05;;;;;;;15.17;7.70;;;6.30;99.90;;;;;;4997009;28;20192;-87
2021/11/16 11:50:40;;;;;;;8.40;5.60;;;6.30;99.90;;;;;;5012205;28;20207;-90
2021/11/16 11:53:10;;;;;;;11.37;6.70;;;6.40;99.90;;;;;;4992478;28;20212;-90
2021/11/16 11:55:40;;;;;;;15.23;5.40;;;6.40;99.90;;;;;;5008127;28;20231;-87
2021/11/16 11:58:06;;;;;;;19.23;8.43;;;6.50;99.90;;;;;;5015023;28;20220;-88
2021/11/16 12:00:37;;;;;;;10.03;5.17;;;6.60;99.90;;;;;;4997492;28;20220;-88
2021/11/16 12:03:05;;;;;;;13.80;5.30;;;6.50;99.90;;;;;;4995874;28;20216;-88
2021/11/16 12:05:34;;;;;;;9.60;7.03;;;6.50;99.90;;;;;;4995219;28;20191;-88
2021/11/16 12:08:01;;;;;;;10.30;5.57;;;6.60;99.90;;;;;;4995253;28;20228;-88
2021/11/16 12:10:27;;;;;;;17.27;7.67;;;6.50;99.90;;;;;;4979160;28;20293;-89
2021/11/16 12:12:53;;;;;;;10.60;5.43;;;6.40;99.90;;;;;;4982489;28;20255;-88
2021/11/16 12:15:31;;;;;;;11.83;6.43;;;6.20;99.90;;;;;;4978340;28;20231;-87
2021/11/16 12:17:59;;;;;;;11.43;4.70;;;6.30;99.90;;;;;;4996483;28;20230;-86
2021/11/16 12:20:49;;;;;;;12.90;8.30;;;6.30;99.90;;;;;;4994824;28;20189;-85
2021/11/16 12:23:50;;;;;;;9.40;5.57;;;6.40;99.90;;;;;;4995768;28;20225;-85
2021/11/16 12:26:17;;;;;;;13.00;5.30;;;6.40;99.90;;;;;;4994359;28;20219;-86
2021/11/16 12:28:44;;;;;;;15.57;6.13;;;6.40;99.90;;;;;;4996087;28;20282;-85
2021/11/16 12:31:26;;;;;;;13.23;7.87;;;6.50;99.90;;;;;;4993270;28;20250;-86
2021/11/16 12:33:53;;;;;;;7.73;5.80;;;6.60;99.90;;;;;;4995491;28;20218;-86
2021/11/16 12:36:43;;;;;;;11.73;7.87;;;6.50;99.90;;;;;;4996251;28;20570;-87
2021/11/16 12:39:19;;;;;;;15.23;5.97;;;6.40;99.90;;;;;;5005020;28;20305;-87
2021/11/16 12:41:50;;;;;;;11.47;4.90;;;6.20;99.90;;;;;;4998944;28;20196;-87
2021/11/16 12:44:46;;;;;;;16.60;6.90;;;6.30;99.90;;;;;;4995064;28;20218;-85
2021/11/16 12:47:15;;;;;;;9.03;5.77;;;6.40;99.90;;;;;;4997463;28;20230;-86
2021/11/16 12:49:44;;;;;;;9.03;6.43;;;6.40;99.90;;;;;;4994117;28;20235;-86
2021/11/16 12:52:19;;;;;;;16.30;7.83;;;6.50;99.90;;;;;;4986851;28;20270;-86
2021/11/16 12:54:45;;;;;;;11.23;6.83;;;6.50;99.90;;;;;;4996070;28;20878;-87
2021/11/16 12:57:35;;;;;;;6.43;5.87;;;6.50;99.90;;;;;;4995624;28;20242;-87
2021/11/16 13:00:04;;;;;;;12.70;5.50;;;6.50;99.90;;;;;;4995696;28;20273;-86
2021/11/16 13:02:46;;;;;;;15.80;5.97;;;6.60;99.90;;;;;;4995907;28;20200;-87
2021/11/16 13:05:25;;;;;;;15.70;6.77;;;6.60;99.90;;;;;;4999237;28;20677;-87
2021/11/16 13:07:56;;;;;;;12.47;7.53;;;6.60;99.90;;;;;;4997440;28;20245;-86
2021/11/16 13:10:24;;;;;;;19.10;7.73;;;6.50;99.90;;;;;;4994535;28;20231;-87
2021/11/16 13:13:04;;;;;;;15.67;7.03;;;6.50;99.90;;;;;;4993916;28;20226;-87
2021/11/16 13:15:33;;;;;;;14.50;6.87;;;6.50;99.90;;;;;;4995818;28;20224;-87
2021/11/16 13:18:10;;;;;;;13.00;7.20;;;6.60;99.90;;;;;;4995820;28;20226;-87
2021/11/16 13:20:43;;;;;;;12.53;6.50;;;6.50;99.90;;;;;;4997649;28;20206;-86
2021/11/16 13:23:19;;;;;;;11.53;6.63;;;6.50;99.90;;;;;;4997066;28;20657;-87
2021/11/16 13:26:18;;;;;;;14.67;5.93;;;6.50;99.90;;;;;;4996330;28;20218;-86
2021/11/16 13:31:32;;;;;;;9.30;5.70;;;6.30;99.90;;;;;;4995417;28;20330;-88